createdAt,value
2023-02-12T00:01:51.008Z,56.63
2023-02-12T00:04:21.100Z,58.93
2023-02-12T00:06:49.794Z,56.50
2023-02-12T00:09:18.485Z,58.57
2023-02-12T00:11:47.155Z,56.07
2023-02-12T00:14:15.854Z,56.83
2023-02-12T00:16:44.628Z,56.93
2023-02-12T00:19:13.450Z,53.37
2023-02-12T00:21:43.658Z,55.53
2023-02-12T00:24:12.468Z,53.63
2023-02-12T00:26:41.175Z,59.27
2023-02-12T00:29:10.805Z,59.63
2023-02-12T00:31:39.503Z,57.20
2023-02-12T00:34:08.139Z,56.80
2023-02-12T00:41:23.116Z,55.17
2023-02-12T00:43:52.314Z,57.70
2023-02-12T00:46:22.144Z,60.40
2023-02-12T00:48:51.057Z,55.33
2023-02-12T00:51:22.314Z,57.47
2023-02-12T00:53:51.115Z,59.53
2023-02-12T00:56:51.781Z,55.67
2023-02-12T00:59:21.364Z,57.73
2023-02-12T01:01:50.177Z,60.77
2023-02-12T01:04:19.240Z,57.67
2023-02-12T01:06:49.789Z,55.13
2023-02-12T01:09:19.315Z,56.07
2023-02-12T01:11:51.405Z,54.87
2023-02-12T01:14:20.164Z,55.50
2023-02-12T01:16:48.903Z,61.17
2023-02-12T01:19:17.627Z,63.10
2023-02-12T01:21:46.461Z,57.53
2023-02-12T01:24:15.154Z,56.63
2023-02-12T01:26:43.794Z,59.00
2023-02-12T01:29:13.910Z,54.87
2023-02-12T01:31:43.966Z,58.73
2023-02-12T01:34:13.769Z,57.27
2023-02-12T01:36:42.497Z,65.63
2023-02-12T01:44:21.049Z,56.97
2023-02-12T01:46:56.032Z,56.33
2023-02-12T01:49:33.218Z,57.03
2023-02-12T01:52:09.700Z,58.53
2023-02-12T01:54:39.674Z,60.27
2023-02-12T01:57:13.054Z,56.87
2023-02-12T01:59:46.861Z,59.40
2023-02-12T02:02:16.351Z,55.20
2023-02-12T02:04:53.468Z,60.47
2023-02-12T02:07:22.289Z,63.77
2023-02-12T02:09:52.108Z,59.63
2023-02-12T02:12:38.469Z,60.60
2023-02-12T02:15:10.210Z,66.80
2023-02-12T02:17:57.570Z,61.23
2023-02-12T02:21:15.481Z,62.13
2023-02-12T02:24:39.109Z,57.37
2023-02-12T02:27:28.035Z,61.63
2023-02-12T02:30:40.545Z,58.43
2023-02-12T02:33:30.896Z,66.07
2023-02-12T02:40:28.423Z,64.50
2023-02-12T02:43:04.114Z,62.07
2023-02-12T02:45:42.712Z,58.87
2023-02-12T02:48:18.896Z,59.30
2023-02-12T02:50:57.158Z,56.97
2023-02-12T02:53:33.274Z,56.73
2023-02-12T02:56:08.359Z,56.77
2023-02-12T02:58:43.518Z,52.60
2023-02-12T03:06:24.185Z,49.80
2023-02-12T03:08:57.691Z,52.63
2023-02-12T03:11:30.070Z,54.33
2023-02-12T03:14:08.512Z,52.70
2023-02-12T03:16:45.098Z,51.30
2023-02-12T03:19:21.471Z,50.83
2023-02-12T03:21:59.651Z,51.23
2023-02-12T03:24:37.896Z,60.03
2023-02-12T03:27:14.046Z,64.90
2023-02-12T03:29:42.698Z,59.37
2023-02-12T03:32:48.107Z,56.13
2023-02-12T03:35:24.412Z,57.77
2023-02-12T03:38:04.957Z,60.53
2023-02-12T03:40:42.237Z,56.53
2023-02-12T03:43:24.212Z,62.33
2023-02-12T03:46:01.515Z,61.90
2023-02-12T03:48:38.009Z,60.57
2023-02-12T03:51:22.958Z,59.40
2023-02-12T03:53:53.899Z,66.70
2023-02-12T03:56:36.061Z,68.30
2023-02-12T03:59:05.906Z,68.50
2023-02-12T04:01:36.437Z,62.23
2023-02-12T04:04:09.312Z,63.63
2023-02-12T04:06:38.701Z,60.67
2023-02-12T04:09:13.646Z,61.63
2023-02-12T04:12:01.667Z,66.67
2023-02-12T04:14:42.447Z,60.17
2023-02-12T04:17:23.352Z,59.03
2023-02-12T04:20:09.048Z,58.30
2023-02-12T04:22:54.418Z,55.97
2023-02-12T04:25:46.225Z,54.03
2023-02-12T04:28:32.986Z,45.37
2023-02-12T04:31:07.482Z,49.23
2023-02-12T04:33:47.393Z,49.47
2023-02-12T04:36:23.036Z,49.83
2023-02-12T04:38:58.682Z,48.50
2023-02-12T04:41:29.398Z,59.67
2023-02-12T04:43:58.387Z,54.60
2023-02-12T04:46:27.114Z,56.67
2023-02-12T04:48:59.402Z,58.23
2023-02-12T04:51:28.497Z,62.33
2023-02-12T04:53:57.342Z,56.67
2023-02-12T04:56:26.047Z,60.27
2023-02-12T04:58:57.867Z,69.97
2023-02-12T05:01:28.526Z,64.70
2023-02-12T05:03:58.268Z,58.50
2023-02-12T05:06:27.046Z,65.30
2023-02-12T05:08:55.895Z,59.53
2023-02-12T05:11:24.914Z,54.53
2023-02-12T05:13:56.203Z,58.03
2023-02-12T05:16:25.055Z,54.60
2023-02-12T05:18:53.744Z,56.07
2023-02-12T05:21:22.423Z,50.73
2023-02-12T05:23:51.146Z,49.20
2023-02-12T05:28:59.267Z,50.13
2023-02-12T05:31:27.100Z,56.53
2023-02-12T05:33:55.905Z,46.97
2023-02-12T05:36:25.940Z,48.67
2023-02-12T05:38:59.893Z,43.27
2023-02-12T05:41:29.569Z,51.87
2023-02-12T05:43:58.300Z,46.10
2023-02-12T05:46:28.413Z,48.10
2023-02-12T05:48:57.179Z,54.40
2023-02-12T05:51:29.133Z,67.63
2023-02-12T05:54:01.136Z,45.73
2023-02-12T05:56:32.467Z,44.37
2023-02-12T05:59:03.775Z,63.20
2023-02-12T06:01:36.717Z,48.80
2023-02-12T06:04:08.648Z,47.80
2023-02-12T06:06:37.697Z,57.40
2023-02-12T06:09:06.342Z,55.13
2023-02-12T06:11:35.116Z,145.90
2023-02-12T06:14:04.649Z,49.00
2023-02-12T06:16:38.684Z,49.13
2023-02-12T06:19:08.455Z,48.37
2023-02-12T06:21:37.367Z,64.97
2023-02-12T06:24:09.149Z,45.90
2023-02-12T06:27:33.298Z,63.87
2023-02-12T06:30:02.027Z,40.03
2023-02-12T06:36:57.528Z,37.20
2023-02-12T06:39:26.277Z,37.93
2023-02-12T06:41:55.018Z,35.67
2023-02-12T06:44:23.890Z,38.30
2023-02-12T06:46:53.058Z,43.00
2023-02-12T06:49:21.972Z,35.70
2023-02-12T06:52:19.216Z,35.67
2023-02-12T06:55:21.098Z,38.13
2023-02-12T07:02:16.065Z,38.67
2023-02-12T07:05:02.072Z,57.67
2023-02-12T07:07:34.198Z,30.27
2023-02-12T07:10:03.074Z,59.03
2023-02-12T07:12:31.824Z,38.17
2023-02-12T07:15:00.472Z,36.27
2023-02-12T07:17:31.614Z,48.90
2023-02-12T07:20:00.877Z,32.23
2023-02-12T07:22:33.410Z,32.13
2023-02-12T07:25:20.229Z,39.00
2023-02-12T07:27:53.104Z,30.77
2023-02-12T07:30:22.519Z,34.27
2023-02-12T07:32:51.375Z,50.37
2023-02-12T07:35:20.152Z,282.23
2023-02-12T07:37:56.202Z,167.10
2023-02-12T07:40:36.046Z,78.90
2023-02-12T07:43:04.993Z,94.37
2023-02-12T07:45:39.580Z,102.43
2023-02-12T07:48:15.724Z,138.97
2023-02-12T07:50:44.452Z,69.97
2023-02-12T07:53:14.585Z,76.67
2023-02-12T07:55:58.241Z,78.80
2023-02-12T07:59:04.632Z,92.93
2023-02-12T08:01:38.491Z,96.00
2023-02-12T08:04:10.409Z,86.20
2023-02-12T08:06:46.187Z,106.27
2023-02-12T08:09:19.838Z,136.67
2023-02-12T08:11:49.138Z,146.67
2023-02-12T08:18:29.359Z,117.20
2023-02-12T08:21:03.117Z,129.23
2023-02-12T08:23:32.425Z,103.97
2023-02-12T08:26:12.677Z,136.03
2023-02-12T08:28:45.830Z,89.03
2023-02-12T08:31:18.233Z,64.63
2023-02-12T08:33:48.098Z,63.43
2023-02-12T08:36:22.376Z,135.47
2023-02-12T08:38:52.357Z,90.53
2023-02-12T08:41:27.540Z,57.30
2023-02-12T08:43:59.664Z,99.47
2023-02-12T08:46:55.700Z,56.37
2023-02-12T08:49:27.294Z,39.97
2023-02-12T08:52:01.929Z,52.13
2023-02-12T08:54:33.459Z,39.30
2023-02-12T08:58:18.179Z,46.00
2023-02-12T09:00:48.536Z,44.93
2023-02-12T09:03:17.428Z,45.23
2023-02-12T09:05:46.388Z,40.57
2023-02-12T09:08:19.561Z,37.63
2023-02-12T09:10:48.703Z,53.53
2023-02-12T09:13:19.754Z,38.37
2023-02-12T09:15:54.182Z,39.63
2023-02-12T09:18:24.526Z,40.60
2023-02-12T09:20:53.565Z,31.40
2023-02-12T09:23:22.765Z,30.77
2023-02-12T09:25:51.864Z,24.60
2023-02-12T09:28:20.758Z,24.57
2023-02-12T09:30:54.083Z,25.67
2023-02-12T09:33:24.184Z,21.57
2023-02-12T09:35:53.119Z,20.30
2023-02-12T09:38:22.435Z,21.07
2023-02-12T09:41:30.578Z,19.40
2023-02-12T09:44:10.522Z,18.43
2023-02-12T09:46:52.084Z,18.83
2023-02-12T09:49:44.727Z,20.67
2023-02-12T09:52:19.654Z,19.77
2023-02-12T09:54:50.886Z,22.07
2023-02-12T09:57:29.564Z,21.83
2023-02-12T10:00:32.005Z,21.10
2023-02-12T10:04:07.653Z,20.57
2023-02-12T10:07:09.430Z,65.13
2023-02-12T10:10:15.377Z,63.67
2023-02-12T10:12:55.928Z,24.00
2023-02-12T10:15:45.278Z,21.33
2023-02-12T10:18:57.058Z,19.93
2023-02-12T10:21:53.806Z,20.17
2023-02-12T10:25:04.694Z,20.67
2023-02-12T10:27:44.361Z,14.87
2023-02-12T10:30:25.055Z,21.63
2023-02-12T10:33:05.533Z,26.93
2023-02-12T10:35:46.968Z,19.03
2023-02-12T10:38:24.653Z,19.73
2023-02-12T10:40:58.015Z,17.57
2023-02-12T10:43:29.595Z,16.23
2023-02-12T10:46:02.413Z,25.83
2023-02-12T10:48:41.636Z,23.30
2023-02-12T10:52:05.402Z,25.93
2023-02-12T10:54:44.817Z,18.43
2023-02-12T10:57:33.733Z,18.53
2023-02-12T11:00:33.623Z,16.93
2023-02-12T11:03:41.428Z,21.53
2023-02-12T11:06:47.781Z,19.03
2023-02-12T11:09:31.361Z,13.60
2023-02-12T11:12:01.976Z,18.53
2023-02-12T11:14:32.026Z,17.97
2023-02-12T11:17:03.091Z,16.13
2023-02-12T11:19:36.018Z,18.53
2023-02-12T11:22:18.999Z,21.20
2023-02-12T11:25:00.777Z,13.03
2023-02-12T11:27:33.547Z,16.20
2023-02-12T11:30:19.619Z,18.87
2023-02-12T11:33:18.879Z,14.93
2023-02-12T11:35:57.094Z,14.33
2023-02-12T11:38:34.617Z,14.67
2023-02-12T11:41:25.249Z,13.63
2023-02-12T11:48:20.565Z,16.27
2023-02-12T11:50:51.316Z,28.23
2023-02-12T11:53:45.942Z,14.07
2023-02-12T11:57:36.159Z,14.00
2023-02-12T12:00:38.755Z,18.20
2023-02-12T12:03:45.608Z,12.90
2023-02-12T12:06:40.311Z,15.17
2023-02-12T12:09:22.226Z,14.47
2023-02-12T12:12:15.024Z,15.53
2023-02-12T12:15:07.898Z,24.27
2023-02-12T12:18:05.554Z,29.67
2023-02-12T12:21:00.301Z,20.00
2023-02-12T12:23:39.783Z,22.87
2023-02-12T12:26:22.176Z,18.83
2023-02-12T12:29:24.374Z,16.20
2023-02-12T12:32:32.435Z,18.73
2023-02-12T12:35:04.983Z,17.33
2023-02-12T12:37:46.637Z,18.97
2023-02-12T12:40:51.382Z,20.23
2023-02-12T12:43:36.199Z,18.97
2023-02-12T12:47:16.708Z,18.40
2023-02-12T12:50:30.012Z,15.03
2023-02-12T12:53:20.101Z,20.27
2023-02-12T12:56:30.340Z,16.47
2023-02-12T12:59:38.455Z,20.67
2023-02-12T13:02:59.920Z,21.63
2023-02-12T13:06:42.863Z,17.47
2023-02-12T13:09:47.040Z,16.30
2023-02-12T13:12:58.272Z,20.17
2023-02-12T13:15:38.637Z,16.70
2023-02-12T13:18:26.121Z,12.13
2023-02-12T13:21:04.209Z,13.40
2023-02-12T13:23:44.678Z,14.57
2023-02-12T13:26:30.623Z,13.63
2023-02-12T13:29:11.181Z,11.07
2023-02-12T13:31:50.395Z,17.07
2023-02-12T13:34:21.458Z,13.47
2023-02-12T13:37:02.508Z,14.30
2023-02-12T13:39:42.082Z,16.03
2023-02-12T13:42:43.459Z,7.93
2023-02-12T13:45:48.247Z,10.10
2023-02-12T13:48:43.103Z,9.57
2023-02-12T13:51:27.494Z,10.43
2023-02-12T13:54:50.868Z,11.63
2023-02-12T13:57:24.562Z,9.03
2023-02-12T14:00:00.163Z,8.83
2023-02-12T14:02:50.739Z,9.47
2023-02-12T14:05:27.699Z,7.90
2023-02-12T14:08:02.204Z,9.07
2023-02-12T14:10:38.581Z,8.90
2023-02-12T14:13:24.049Z,9.27
2023-02-12T14:15:59.307Z,10.53
2023-02-12T14:19:33.828Z,7.73
2023-02-12T14:22:04.863Z,10.67
2023-02-12T14:25:26.631Z,9.07
2023-02-12T14:27:59.220Z,11.00
2023-02-12T14:30:36.769Z,9.87
2023-02-12T14:33:28.514Z,10.20
2023-02-12T14:40:47.213Z,8.93
2023-02-12T14:43:54.721Z,10.93
2023-02-12T14:46:54.560Z,10.27
2023-02-12T14:49:30.062Z,8.70
2023-02-12T14:52:21.239Z,9.50
2023-02-12T14:54:54.821Z,8.47
2023-02-12T14:57:29.568Z,10.23
2023-02-12T15:00:02.424Z,12.53
2023-02-12T15:02:37.571Z,9.50
2023-02-12T15:05:21.612Z,11.43
2023-02-12T15:07:58.410Z,10.00
2023-02-12T15:10:37.387Z,9.00
2023-02-12T15:13:30.498Z,10.20
2023-02-12T15:16:10.401Z,8.87
2023-02-12T15:18:52.784Z,9.13
2023-02-12T15:21:27.770Z,10.33
2023-02-12T15:24:09.271Z,10.85
2023-02-12T15:26:46.219Z,10.40
2023-02-12T15:29:28.840Z,11.43
2023-02-12T15:32:01.390Z,10.80
2023-02-12T15:34:39.271Z,10.23
2023-02-12T15:37:11.212Z,10.93
2023-02-12T15:39:45.246Z,13.18
2023-02-12T15:42:31.366Z,13.45
2023-02-12T15:45:22.166Z,12.17
2023-02-12T15:48:06.520Z,15.17
2023-02-12T15:50:42.224Z,12.33
2023-02-12T15:53:14.824Z,12.83
2023-02-12T15:55:46.857Z,12.40
2023-02-12T15:58:28.221Z,11.23
2023-02-12T16:01:03.368Z,11.17
2023-02-12T16:03:36.095Z,12.37
2023-02-12T16:06:35.342Z,13.97
2023-02-12T16:09:10.763Z,11.23
2023-02-12T16:11:43.581Z,10.07
2023-02-12T16:14:24.488Z,10.90
2023-02-12T16:16:56.656Z,10.47
2023-02-12T16:19:29.107Z,12.30
2023-02-12T16:22:07.402Z,13.10
2023-02-12T16:24:41.838Z,10.43
2023-02-12T16:27:21.100Z,11.17
2023-02-12T16:29:53.342Z,11.40
2023-02-12T16:32:37.223Z,9.83
2023-02-12T16:35:26.475Z,14.17
2023-02-12T16:42:29.649Z,23.63
2023-02-12T16:44:58.743Z,19.37
2023-02-12T16:47:28.244Z,20.63
2023-02-12T16:50:02.010Z,19.27
2023-02-12T16:52:39.862Z,20.03
2023-02-12T16:55:14.730Z,23.47
2023-02-12T16:57:47.524Z,26.10
2023-02-12T17:00:19.108Z,27.53
2023-02-12T17:02:48.243Z,19.43
2023-02-12T17:05:18.730Z,21.80
2023-02-12T17:07:50.175Z,16.07
2023-02-12T17:10:19.774Z,16.33
2023-02-12T17:12:53.748Z,15.50
2023-02-12T17:15:30.694Z,15.77
2023-02-12T17:18:00.736Z,21.30
2023-02-12T17:20:29.646Z,17.20
2023-02-12T17:23:00.946Z,15.33
2023-02-12T17:25:30.320Z,17.10
2023-02-12T17:28:01.120Z,17.00
2023-02-12T17:30:34.960Z,14.33
2023-02-12T17:33:03.707Z,16.03
2023-02-12T17:35:32.503Z,15.17
2023-02-12T17:38:01.594Z,18.10
2023-02-12T17:40:33.396Z,13.57
2023-02-12T17:43:04.779Z,14.60
2023-02-12T17:45:34.057Z,13.97
2023-02-12T17:48:02.775Z,13.40
2023-02-12T17:50:33.672Z,17.17
2023-02-12T17:53:02.526Z,17.60
2023-02-12T17:55:33.136Z,17.20
2023-02-12T17:58:03.361Z,15.87
2023-02-12T18:00:35.711Z,18.53
2023-02-12T18:03:04.470Z,21.67
2023-02-12T18:05:33.120Z,18.63
2023-02-12T18:08:03.577Z,18.87
2023-02-12T18:10:32.201Z,18.67
2023-02-12T18:13:00.851Z,18.33
2023-02-12T18:15:30.923Z,17.17
2023-02-12T18:17:59.657Z,18.70
2023-02-12T18:20:28.916Z,18.03
2023-02-12T18:22:58.209Z,15.87
2023-02-12T18:25:27.022Z,17.57
2023-02-12T18:27:55.679Z,16.43
2023-02-12T18:30:26.033Z,18.43
2023-02-12T18:32:59.283Z,21.33
2023-02-12T18:35:27.972Z,26.70
2023-02-12T18:37:56.820Z,21.77
2023-02-12T18:40:26.430Z,22.43
2023-02-12T18:42:56.150Z,20.53
2023-02-12T18:45:24.956Z,19.70
2023-02-12T18:47:53.761Z,22.03
2023-02-12T18:50:23.960Z,20.67
2023-02-12T18:52:55.407Z,18.37
2023-02-12T18:56:07.873Z,21.10
2023-02-12T18:58:44.302Z,20.37
2023-02-12T19:01:38.680Z,19.70
2023-02-12T19:04:16.540Z,22.30
2023-02-12T19:06:57.026Z,18.83
2023-02-12T19:09:28.332Z,19.73
2023-02-12T19:12:01.236Z,24.73
2023-02-12T19:14:30.503Z,24.83
2023-02-12T19:17:10.385Z,21.57
2023-02-12T19:19:39.912Z,21.73
2023-02-12T19:22:47.277Z,29.80
2023-02-12T19:25:16.453Z,25.17
2023-02-12T19:27:45.172Z,24.17
2023-02-12T19:30:35.356Z,23.27
2023-02-12T19:33:04.548Z,49.73
2023-02-12T19:35:33.988Z,33.83
2023-02-12T19:38:04.289Z,25.27
2023-02-12T19:40:33.430Z,20.43
2023-02-12T19:43:02.132Z,19.20
2023-02-12T19:45:30.937Z,22.80
2023-02-12T19:47:59.932Z,20.63
2023-02-12T19:50:46.551Z,22.17
2023-02-12T19:53:16.763Z,26.83
2023-02-12T19:55:46.297Z,26.63
2023-02-12T19:58:15.218Z,32.67
2023-02-12T20:00:45.213Z,37.87
2023-02-12T20:03:18.223Z,32.03
2023-02-12T20:05:52.175Z,33.03
2023-02-12T20:08:44.367Z,34.47
2023-02-12T20:11:16.416Z,36.70
2023-02-12T20:13:47.362Z,25.00
2023-02-12T20:16:19.629Z,26.07
2023-02-12T20:18:54.147Z,30.47
2023-02-12T20:21:28.309Z,28.90
2023-02-12T20:24:01.779Z,57.27
2023-02-12T20:26:32.998Z,51.03
2023-02-12T20:29:11.143Z,43.37
2023-02-12T20:31:41.027Z,34.70
2023-02-12T20:34:18.490Z,25.53
2023-02-12T20:36:50.969Z,22.53
2023-02-12T20:40:01.387Z,32.10
2023-02-12T20:42:30.674Z,32.73
2023-02-12T20:44:59.454Z,37.17
2023-02-12T20:48:21.152Z,32.90
2023-02-12T20:50:49.990Z,48.57
2023-02-12T20:53:18.689Z,54.53
2023-02-12T20:55:48.846Z,47.50
2023-02-12T20:58:17.707Z,38.53
2023-02-12T21:00:46.493Z,57.77
2023-02-12T21:03:15.230Z,40.57
2023-02-12T21:05:43.964Z,56.30
2023-02-12T21:08:12.650Z,51.53
2023-02-12T21:10:41.365Z,65.07
2023-02-12T21:13:11.428Z,41.17
2023-02-12T21:15:40.277Z,33.23
2023-02-12T21:18:09.198Z,37.27
2023-02-12T21:20:38.101Z,55.13
2023-02-12T21:23:06.755Z,48.93
2023-02-12T21:25:35.536Z,37.60
2023-02-12T21:28:04.351Z,58.90
2023-02-12T21:30:34.565Z,39.20
2023-02-12T21:33:03.258Z,36.50
2023-02-12T21:35:31.967Z,35.77
2023-02-12T21:38:00.654Z,33.70
2023-02-12T21:40:29.287Z,25.93
2023-02-12T21:42:58.042Z,24.33
2023-02-12T21:45:26.874Z,31.27
2023-02-12T21:47:57.002Z,32.57
2023-02-12T21:50:25.648Z,29.00
2023-02-12T21:52:54.577Z,19.73
2023-02-12T21:55:23.268Z,21.37
2023-02-12T21:57:51.928Z,26.13
2023-02-12T22:00:21.794Z,29.87
2023-02-12T22:02:50.777Z,25.77
2023-02-12T22:05:20.971Z,29.57
2023-02-12T22:07:50.856Z,25.37
2023-02-12T22:10:20.191Z,30.33
2023-02-12T22:12:49.084Z,28.63
2023-02-12T22:15:18.035Z,21.77
2023-02-12T22:17:46.878Z,24.47
2023-02-12T22:20:15.958Z,21.07
2023-02-12T22:22:46.153Z,19.57
2023-02-12T22:25:14.798Z,22.47
2023-02-12T22:27:43.548Z,20.03
2023-02-12T22:30:13.302Z,24.50
2023-02-12T22:32:42.212Z,22.50
2023-02-12T22:35:11.426Z,19.30
2023-02-12T22:37:42.082Z,21.53
2023-02-12T22:40:14.367Z,22.53
2023-02-12T22:42:43.179Z,21.83
2023-02-12T22:45:12.163Z,23.77
2023-02-12T22:47:40.949Z,17.07
2023-02-12T22:50:10.548Z,20.10
2023-02-12T22:52:39.518Z,21.77
2023-02-12T22:58:01.111Z,22.23
2023-02-12T23:00:28.862Z,20.97
2023-02-12T23:02:57.986Z,20.33
2023-02-12T23:05:27.501Z,22.77
2023-02-12T23:07:56.331Z,14.60
2023-02-12T23:10:25.115Z,19.23
2023-02-12T23:12:53.881Z,20.63
2023-02-12T23:15:24.020Z,20.10
2023-02-12T23:17:53.192Z,20.37
2023-02-12T23:20:22.076Z,19.23
2023-02-12T23:22:50.913Z,26.00
2023-02-12T23:25:19.635Z,32.77
2023-02-12T23:27:48.227Z,22.00
2023-02-12T23:30:17.263Z,19.20
2023-02-12T23:32:47.225Z,21.70
2023-02-12T23:35:16.071Z,25.83
2023-02-12T23:37:45.564Z,24.30
2023-02-12T23:40:15.466Z,27.27
2023-02-12T23:42:44.147Z,23.23
2023-02-12T23:45:12.815Z,23.63
2023-02-12T23:47:41.770Z,25.60
2023-02-12T23:50:12.750Z,23.07
2023-02-12T23:52:41.639Z,24.13
2023-02-12T23:55:10.676Z,22.93
2023-02-12T23:57:39.303Z,23.73
